THY102 BKPR-LTFJ
Flight info
| Callsign | THY102 |
|---|---|
| Flight time | 1h 14m |
| Altitude | 37000 |
| Route | SARAX1D SARAX DCT SKJ DCT VELBA DCT ADORU UM19 IBODU |
| Aircraft | A320/M-SDE3FGHIRWY/LB1 |
Departure
| Time | 2026-04-24 13:59 |
|---|---|
| Airport | Priština Adem Jashari International Airport (BKPR) |
Arrival
| Time | 2026-04-24 15:13 |
|---|---|
| Airport | Istanbul Sabiha Gökçen International Airport (LTFJ) |
| Time | Latitude | Longitude | Altitude | Speed | Heading |
|---|---|---|---|---|---|
| 2026-04-24 13:35 | 42.57472 | 21.03147 | 1790 ft | 0 kts | 265° |
| 2026-04-24 13:48 | 42.57472 | 21.03149 | 1778 ft | 2 kts | 265° |
| 2026-04-24 13:49 | 42.57474 | 21.03183 | 1786 ft | 4 kts | 269° |
| 2026-04-24 13:49 | 42.57474 | 21.03220 | 1786 ft | 4 kts | 276° |
| 2026-04-24 13:49 | 42.57473 | 21.03235 | 1785 ft | 1 kts | 276° |
| 2026-04-24 13:52 | 42.57474 | 21.03217 | 1786 ft | 4 kts | 276° |
| 2026-04-24 13:52 | 42.57490 | 21.03193 | 1786 ft | 4 kts | 337° |
| 2026-04-24 13:53 | 42.57523 | 21.03167 | 1786 ft | 7 kts | 324° |
| 2026-04-24 13:53 | 42.57551 | 21.03170 | 1786 ft | 3 kts | 30° |
| 2026-04-24 13:53 | 42.57565 | 21.03190 | 1786 ft | 7 kts | 49° |
| 2026-04-24 13:53 | 42.57579 | 21.03267 | 1786 ft | 9 kts | 98° |
| 2026-04-24 13:54 | 42.57544 | 21.03310 | 1786 ft | 8 kts | 154° |
| 2026-04-24 13:54 | 42.57483 | 21.03326 | 1788 ft | 11 kts | 172° |
| 2026-04-24 13:54 | 42.57398 | 21.03337 | 1789 ft | 14 kts | 175° |
| 2026-04-24 13:54 | 42.57292 | 21.03340 | 1789 ft | 17 kts | 176° |
| 2026-04-24 13:55 | 42.57165 | 21.03354 | 1788 ft | 20 kts | 175° |
| 2026-04-24 13:55 | 42.57015 | 21.03372 | 1789 ft | 22 kts | 174° |
| 2026-04-24 13:55 | 42.56851 | 21.03391 | 1786 ft | 26 kts | 175° |
| 2026-04-24 13:55 | 42.56731 | 21.03407 | 1785 ft | 25 kts | 174° |
| 2026-04-24 13:56 | 42.56552 | 21.03416 | 1786 ft | 26 kts | 178° |
| 2026-04-24 13:56 | 42.56385 | 21.03434 | 1788 ft | 20 kts | 170° |
| 2026-04-24 13:56 | 42.56324 | 21.03528 | 1790 ft | 0 kts | 109° |
| 2026-04-24 13:57 | 42.56323 | 21.03529 | 1790 ft | 1 kts | 109° |
| 2026-04-24 13:57 | 42.56317 | 21.03554 | 1789 ft | 5 kts | 109° |
| 2026-04-24 13:57 | 42.56305 | 21.03614 | 1788 ft | 8 kts | 97° |
| 2026-04-24 13:57 | 42.56332 | 21.03676 | 1789 ft | 8 kts | 22° |
| 2026-04-24 13:58 | 42.56377 | 21.03683 | 1789 ft | 0 kts | 357° |
| 2026-04-24 13:58 | 42.56578 | 21.03659 | 1784 ft | 68 kts | 354° |
| 2026-04-24 13:58 | 42.57273 | 21.03585 | 1793 ft | 129 kts | 355° |
| 2026-04-24 13:59 | 42.58305 | 21.03480 | 2081 ft | 149 kts | 356° |
| 2026-04-24 13:59 | 42.59344 | 21.03515 | 2856 ft | 156 kts | 0° |
| 2026-04-24 13:59 | 42.60483 | 21.03667 | 3478 ft | 170 kts | 0° |
| 2026-04-24 13:59 | 42.61683 | 21.03671 | 4120 ft | 176 kts | 353° |
| 2026-04-24 14:00 | 42.62924 | 21.03457 | 4781 ft | 183 kts | 343° |
| 2026-04-24 14:00 | 42.64052 | 21.02710 | 5629 ft | 182 kts | 320° |
| 2026-04-24 14:00 | 42.64853 | 21.01385 | 6481 ft | 184 kts | 297° |
| 2026-04-24 14:00 | 42.65316 | 20.99756 | 7307 ft | 185 kts | 290° |
| 2026-04-24 14:01 | 42.65854 | 20.98125 | 7904 ft | 199 kts | 306° |
| 2026-04-24 14:01 | 42.66753 | 20.96595 | 8340 ft | 221 kts | 312° |
| 2026-04-24 14:01 | 42.67792 | 20.94917 | 8846 ft | 244 kts | 310° |
| 2026-04-24 14:01 | 42.68723 | 20.92907 | 9553 ft | 259 kts | 289° |
| 2026-04-24 14:02 | 42.68862 | 20.90446 | 10415 ft | 270 kts | 260° |
| 2026-04-24 14:02 | 42.68077 | 20.88096 | 11226 ft | 280 kts | 231° |
| 2026-04-24 14:02 | 42.66598 | 20.86308 | 11929 ft | 294 kts | 217° |
| 2026-04-24 14:02 | 42.64853 | 20.84667 | 12394 ft | 313 kts | 214° |
| 2026-04-24 14:03 | 42.63030 | 20.83000 | 13244 ft | 318 kts | 214° |
| 2026-04-24 14:03 | 42.61206 | 20.81267 | 14079 ft | 323 kts | 216° |
| 2026-04-24 14:03 | 42.59393 | 20.79431 | 14809 ft | 328 kts | 219° |
| 2026-04-24 14:03 | 42.57581 | 20.77522 | 15578 ft | 332 kts | 219° |
| 2026-04-24 14:04 | 42.55739 | 20.75600 | 16323 ft | 336 kts | 219° |
| 2026-04-24 14:04 | 42.53859 | 20.73674 | 17068 ft | 341 kts | 218° |
| 2026-04-24 14:04 | 42.51941 | 20.71738 | 17777 ft | 346 kts | 217° |
| 2026-04-24 14:04 | 42.49795 | 20.70234 | 18453 ft | 351 kts | 196° |
| 2026-04-24 14:05 | 42.47376 | 20.69817 | 19065 ft | 352 kts | 174° |
| 2026-04-24 14:05 | 42.44989 | 20.70516 | 19626 ft | 355 kts | 157° |
| 2026-04-24 14:05 | 42.42670 | 20.71862 | 19822 ft | 372 kts | 152° |
| 2026-04-24 14:05 | 42.40271 | 20.73396 | 20017 ft | 390 kts | 152° |
| 2026-04-24 14:06 | 42.37742 | 20.74916 | 20294 ft | 405 kts | 154° |
| 2026-04-24 14:06 | 42.35118 | 20.76372 | 20918 ft | 408 kts | 155° |
| 2026-04-24 14:06 | 42.32463 | 20.77777 | 21534 ft | 412 kts | 156° |
| 2026-04-24 14:06 | 42.29771 | 20.79169 | 22158 ft | 416 kts | 156° |
| 2026-04-24 14:07 | 42.27048 | 20.80566 | 22767 ft | 420 kts | 156° |
| 2026-04-24 14:07 | 42.24305 | 20.81970 | 23343 ft | 424 kts | 155° |
| 2026-04-24 14:07 | 42.21539 | 20.83386 | 23919 ft | 426 kts | 155° |
| 2026-04-24 14:07 | 42.18762 | 20.84807 | 24440 ft | 427 kts | 155° |
| 2026-04-24 14:08 | 42.15973 | 20.86236 | 24890 ft | 431 kts | 155° |
| 2026-04-24 14:08 | 42.13237 | 20.87869 | 25385 ft | 428 kts | 144° |
| 2026-04-24 14:08 | 42.10888 | 20.90252 | 25952 ft | 420 kts | 130° |
| 2026-04-24 14:08 | 42.09060 | 20.93278 | 26415 ft | 414 kts | 116° |
| 2026-04-24 14:09 | 42.07857 | 20.96759 | 26875 ft | 408 kts | 103° |
| 2026-04-24 14:09 | 42.07086 | 21.00430 | 27392 ft | 407 kts | 100° |
| 2026-04-24 14:09 | 42.06366 | 21.04127 | 27893 ft | 409 kts | 100° |
| 2026-04-24 14:09 | 42.05636 | 21.07781 | 28348 ft | 411 kts | 101° |
| 2026-04-24 14:10 | 42.04854 | 21.11538 | 28788 ft | 413 kts | 101° |
| 2026-04-24 14:10 | 42.04066 | 21.15216 | 29200 ft | 415 kts | 102° |
| 2026-04-24 14:10 | 42.03254 | 21.18953 | 29555 ft | 417 kts | 102° |
| 2026-04-24 14:10 | 42.02431 | 21.22705 | 29980 ft | 419 kts | 102° |
| 2026-04-24 14:11 | 42.01604 | 21.26470 | 30344 ft | 421 kts | 102° |
| 2026-04-24 14:11 | 42.00761 | 21.30303 | 30696 ft | 423 kts | 102° |
| 2026-04-24 14:11 | 41.99095 | 21.37857 | 31453 ft | 425 kts | 102° |
| 2026-04-24 14:12 | 41.98254 | 21.41657 | 31928 ft | 423 kts | 102° |
| 2026-04-24 14:12 | 41.97416 | 21.45433 | 32414 ft | 421 kts | 102° |
| 2026-04-24 14:12 | 41.96581 | 21.49196 | 32861 ft | 420 kts | 102° |
| 2026-04-24 14:12 | 41.95747 | 21.52951 | 33310 ft | 418 kts | 101° |
| 2026-04-24 14:13 | 41.94916 | 21.56686 | 33740 ft | 417 kts | 101° |
| 2026-04-24 14:13 | 41.94204 | 21.60437 | 34121 ft | 413 kts | 96° |
| 2026-04-24 14:13 | 41.93782 | 21.64238 | 34371 ft | 411 kts | 91° |
| 2026-04-24 14:13 | 41.93650 | 21.68057 | 34596 ft | 409 kts | 86° |
| 2026-04-24 14:14 | 41.93757 | 21.71877 | 34826 ft | 410 kts | 84° |
| 2026-04-24 14:14 | 41.93884 | 21.75714 | 35073 ft | 411 kts | 84° |
| 2026-04-24 14:14 | 41.94115 | 21.83414 | 35536 ft | 414 kts | 84° |
| 2026-04-24 14:15 | 41.94225 | 21.87281 | 35765 ft | 415 kts | 84° |
| 2026-04-24 14:15 | 41.94333 | 21.91158 | 35988 ft | 416 kts | 84° |
| 2026-04-24 14:15 | 41.94441 | 21.95046 | 36200 ft | 417 kts | 84° |
| 2026-04-24 14:15 | 41.94549 | 21.98945 | 36408 ft | 419 kts | 85° |
| 2026-04-24 14:16 | 41.94656 | 22.02852 | 36619 ft | 419 kts | 84° |
| 2026-04-24 14:16 | 41.94763 | 22.06773 | 36827 ft | 420 kts | 84° |
| 2026-04-24 14:16 | 41.94869 | 22.10705 | 36978 ft | 422 kts | 85° |
| 2026-04-24 14:17 | 41.95074 | 22.18554 | 36972 ft | 419 kts | 85° |
| 2026-04-24 14:17 | 41.95373 | 22.30311 | 36971 ft | 420 kts | 85° |
| 2026-04-24 14:18 | 41.95565 | 22.38165 | 36970 ft | 421 kts | 85° |
| 2026-04-24 14:18 | 41.95753 | 22.46004 | 36968 ft | 420 kts | 85° |
| 2026-04-24 14:19 | 41.95935 | 22.53857 | 36964 ft | 420 kts | 85° |
| 2026-04-24 14:19 | 41.96111 | 22.61658 | 36967 ft | 421 kts | 85° |
| 2026-04-24 14:20 | 41.96282 | 22.69518 | 36967 ft | 421 kts | 85° |
| 2026-04-24 14:20 | 41.96448 | 22.77381 | 36964 ft | 421 kts | 85° |
| 2026-04-24 14:21 | 41.96609 | 22.85249 | 36959 ft | 421 kts | 85° |
| 2026-04-24 14:21 | 41.96606 | 22.93119 | 36950 ft | 422 kts | 88° |
| 2026-04-24 14:22 | 41.96523 | 23.00995 | 36956 ft | 422 kts | 87° |
| 2026-04-24 14:23 | 41.96402 | 23.12834 | 36960 ft | 422 kts | 88° |
| 2026-04-24 14:23 | 41.96308 | 23.20727 | 36963 ft | 423 kts | 88° |
| 2026-04-24 14:24 | 41.96206 | 23.28626 | 36968 ft | 423 kts | 88° |
| 2026-04-24 14:24 | 41.96098 | 23.36532 | 36960 ft | 423 kts | 88° |
| 2026-04-24 14:25 | 41.95986 | 23.44430 | 36949 ft | 423 kts | 88° |
| 2026-04-24 14:25 | 41.95867 | 23.52336 | 36952 ft | 423 kts | 88° |
| 2026-04-24 14:26 | 41.95743 | 23.60241 | 36955 ft | 424 kts | 88° |
| 2026-04-24 14:26 | 41.95615 | 23.68169 | 36940 ft | 424 kts | 88° |
| 2026-04-24 14:27 | 41.95479 | 23.76098 | 36960 ft | 425 kts | 88° |
| 2026-04-24 14:27 | 41.95338 | 23.84041 | 36954 ft | 426 kts | 88° |
| 2026-04-24 14:28 | 41.95191 | 23.91994 | 36958 ft | 426 kts | 88° |
| 2026-04-24 14:28 | 41.95040 | 23.99955 | 36957 ft | 426 kts | 88° |
| 2026-04-24 14:29 | 41.94881 | 24.07919 | 36958 ft | 427 kts | 88° |
| 2026-04-24 14:29 | 41.94717 | 24.15893 | 36957 ft | 427 kts | 88° |
| 2026-04-24 14:30 | 41.94577 | 24.22528 | 36957 ft | 427 kts | 88° |
| 2026-04-24 14:30 | 41.94374 | 24.31842 | 36957 ft | 427 kts | 88° |
| 2026-04-24 14:31 | 41.94194 | 24.39767 | 36947 ft | 427 kts | 88° |
| 2026-04-24 14:31 | 41.94009 | 24.47731 | 36943 ft | 426 kts | 89° |
| 2026-04-24 14:32 | 41.93818 | 24.55692 | 36935 ft | 427 kts | 89° |
| 2026-04-24 14:32 | 41.93630 | 24.63355 | 36934 ft | 427 kts | 89° |
| 2026-04-24 14:33 | 41.93493 | 24.68821 | 36936 ft | 427 kts | 89° |
| 2026-04-24 14:33 | 41.93316 | 24.75635 | 36929 ft | 427 kts | 89° |
| 2026-04-24 14:34 | 41.93104 | 24.83617 | 36937 ft | 428 kts | 89° |
| 2026-04-24 14:34 | 41.92887 | 24.91617 | 36938 ft | 429 kts | 89° |
| 2026-04-24 14:35 | 41.92665 | 24.99622 | 36943 ft | 430 kts | 89° |
| 2026-04-24 14:35 | 41.92438 | 25.07645 | 36941 ft | 430 kts | 89° |
| 2026-04-24 14:36 | 41.92204 | 25.15669 | 36947 ft | 430 kts | 89° |
| 2026-04-24 14:36 | 41.91964 | 25.23707 | 36950 ft | 431 kts | 89° |
| 2026-04-24 14:37 | 41.91719 | 25.31748 | 36949 ft | 431 kts | 89° |
| 2026-04-24 14:37 | 41.91466 | 25.39803 | 36953 ft | 432 kts | 89° |
| 2026-04-24 14:38 | 41.91209 | 25.47857 | 36951 ft | 432 kts | 89° |
| 2026-04-24 14:38 | 41.90945 | 25.55915 | 36952 ft | 432 kts | 89° |
| 2026-04-24 14:39 | 41.90675 | 25.63974 | 36951 ft | 432 kts | 89° |
| 2026-04-24 14:39 | 41.90401 | 25.72039 | 36951 ft | 433 kts | 89° |
| 2026-04-24 14:40 | 41.90121 | 25.80108 | 36952 ft | 433 kts | 89° |
| 2026-04-24 14:40 | 41.89835 | 25.88182 | 36951 ft | 433 kts | 89° |
| 2026-04-24 14:41 | 41.89542 | 25.96262 | 36953 ft | 434 kts | 89° |
| 2026-04-24 14:41 | 41.89243 | 26.04351 | 36955 ft | 434 kts | 89° |
| 2026-04-24 14:42 | 41.88991 | 26.11067 | 36949 ft | 434 kts | 90° |
| 2026-04-24 14:42 | 41.88630 | 26.20518 | 36946 ft | 434 kts | 90° |
| 2026-04-24 14:43 | 41.88368 | 26.27244 | 36946 ft | 434 kts | 90° |
| 2026-04-24 14:43 | 41.88047 | 26.35338 | 36944 ft | 435 kts | 90° |
| 2026-04-24 14:44 | 41.87668 | 26.44760 | 36948 ft | 435 kts | 90° |
| 2026-04-24 14:44 | 41.87246 | 26.51551 | 36947 ft | 439 kts | 98° |
| 2026-04-24 14:45 | 41.85200 | 26.59306 | 36946 ft | 447 kts | 116° |
| 2026-04-24 14:45 | 41.81471 | 26.66038 | 36948 ft | 452 kts | 127° |
| 2026-04-24 14:46 | 41.77479 | 26.72481 | 36953 ft | 453 kts | 126° |
| 2026-04-24 14:46 | 41.73458 | 26.78983 | 36960 ft | 453 kts | 127° |
| 2026-04-24 14:47 | 41.69427 | 26.85477 | 36962 ft | 454 kts | 127° |
| 2026-04-24 14:47 | 41.65385 | 26.91969 | 36964 ft | 454 kts | 127° |
| 2026-04-24 14:48 | 41.61337 | 26.98456 | 36969 ft | 455 kts | 127° |
| 2026-04-24 14:48 | 41.57424 | 27.05073 | 36970 ft | 452 kts | 120° |
| 2026-04-24 14:49 | 41.54588 | 27.12484 | 36971 ft | 447 kts | 107° |
| 2026-04-24 14:49 | 41.52844 | 27.20408 | 36969 ft | 445 kts | 102° |
| 2026-04-24 14:50 | 41.51205 | 27.28363 | 36961 ft | 445 kts | 103° |
| 2026-04-24 14:50 | 41.49546 | 27.36315 | 36971 ft | 445 kts | 103° |
| 2026-04-24 14:51 | 41.47880 | 27.44267 | 36961 ft | 445 kts | 103° |
| 2026-04-24 14:51 | 41.46209 | 27.52218 | 36903 ft | 445 kts | 103° |
| 2026-04-24 14:51 | 41.45373 | 27.56181 | 36507 ft | 444 kts | 103° |
| 2026-04-24 14:52 | 41.44536 | 27.60135 | 35879 ft | 444 kts | 102° |
| 2026-04-24 14:52 | 41.43695 | 27.64108 | 35119 ft | 446 kts | 102° |
| 2026-04-24 14:52 | 41.42850 | 27.68087 | 34317 ft | 448 kts | 101° |
| 2026-04-24 14:52 | 41.42000 | 27.72080 | 33498 ft | 448 kts | 101° |
| 2026-04-24 14:53 | 41.41147 | 27.76081 | 32519 ft | 450 kts | 101° |
| 2026-04-24 14:53 | 41.40291 | 27.80101 | 31523 ft | 453 kts | 101° |
| 2026-04-24 14:53 | 41.39427 | 27.84144 | 30573 ft | 454 kts | 101° |
| 2026-04-24 14:53 | 41.38558 | 27.88206 | 29488 ft | 457 kts | 101° |
| 2026-04-24 14:54 | 41.37687 | 27.92281 | 28467 ft | 458 kts | 101° |
| 2026-04-24 14:54 | 41.36814 | 27.96344 | 27637 ft | 455 kts | 102° |
| 2026-04-24 14:54 | 41.35945 | 28.00378 | 26845 ft | 452 kts | 102° |
| 2026-04-24 14:54 | 41.35082 | 28.04384 | 26060 ft | 449 kts | 102° |
| 2026-04-24 14:55 | 41.34227 | 28.08349 | 25301 ft | 446 kts | 103° |
| 2026-04-24 14:55 | 41.33373 | 28.12310 | 24571 ft | 444 kts | 103° |
| 2026-04-24 14:55 | 41.32538 | 28.16174 | 23630 ft | 439 kts | 103° |
| 2026-04-24 14:55 | 41.31696 | 28.20063 | 22490 ft | 435 kts | 104° |
| 2026-04-24 14:56 | 41.30862 | 28.23899 | 21488 ft | 429 kts | 104° |
| 2026-04-24 14:56 | 41.30038 | 28.27676 | 20745 ft | 418 kts | 104° |
| 2026-04-24 14:56 | 41.29241 | 28.31317 | 20285 ft | 406 kts | 104° |
| 2026-04-24 14:56 | 41.28464 | 28.34863 | 20054 ft | 394 kts | 104° |
| 2026-04-24 14:57 | 41.27697 | 28.38363 | 19994 ft | 397 kts | 104° |
| 2026-04-24 14:57 | 41.26924 | 28.41895 | 19972 ft | 398 kts | 104° |
| 2026-04-24 14:57 | 41.26147 | 28.45429 | 19659 ft | 398 kts | 104° |
| 2026-04-24 14:57 | 41.25371 | 28.48963 | 19011 ft | 402 kts | 104° |
| 2026-04-24 14:58 | 41.24576 | 28.52574 | 18093 ft | 409 kts | 104° |
| 2026-04-24 14:58 | 41.23774 | 28.56208 | 17321 ft | 409 kts | 104° |
| 2026-04-24 14:58 | 41.22977 | 28.59810 | 16686 ft | 404 kts | 105° |
| 2026-04-24 14:58 | 41.22189 | 28.63365 | 16014 ft | 398 kts | 105° |
| 2026-04-24 14:59 | 41.21412 | 28.66867 | 15103 ft | 392 kts | 105° |
| 2026-04-24 14:59 | 41.20648 | 28.70303 | 14430 ft | 382 kts | 105° |
| 2026-04-24 14:59 | 41.19913 | 28.73599 | 14114 ft | 362 kts | 105° |
| 2026-04-24 14:59 | 41.19201 | 28.76793 | 14002 ft | 365 kts | 106° |
| 2026-04-24 15:00 | 41.18478 | 28.80037 | 13951 ft | 365 kts | 106° |
| 2026-04-24 15:00 | 41.17756 | 28.83265 | 13560 ft | 366 kts | 106° |
| 2026-04-24 15:00 | 41.17029 | 28.86507 | 12838 ft | 369 kts | 106° |
| 2026-04-24 15:00 | 41.16290 | 28.89797 | 12020 ft | 373 kts | 106° |
| 2026-04-24 15:01 | 41.15552 | 28.93079 | 11423 ft | 370 kts | 106° |
| 2026-04-24 15:01 | 41.14820 | 28.96336 | 10870 ft | 366 kts | 106° |
| 2026-04-24 15:01 | 41.14097 | 28.99545 | 10475 ft | 358 kts | 106° |
| 2026-04-24 15:01 | 41.13399 | 29.02637 | 10327 ft | 342 kts | 106° |
| 2026-04-24 15:02 | 41.12730 | 29.05597 | 10189 ft | 328 kts | 106° |
| 2026-04-24 15:02 | 41.12090 | 29.08426 | 10025 ft | 311 kts | 106° |
| 2026-04-24 15:02 | 41.11483 | 29.11102 | 9675 ft | 299 kts | 106° |
| 2026-04-24 15:02 | 41.10888 | 29.13723 | 9079 ft | 296 kts | 106° |
| 2026-04-24 15:03 | 41.10298 | 29.16319 | 8470 ft | 293 kts | 106° |
| 2026-04-24 15:03 | 41.09714 | 29.18886 | 7884 ft | 290 kts | 106° |
| 2026-04-24 15:03 | 41.09134 | 29.21429 | 7329 ft | 286 kts | 106° |
| 2026-04-24 15:03 | 41.08567 | 29.23910 | 7013 ft | 275 kts | 106° |
| 2026-04-24 15:04 | 41.08027 | 29.26281 | 6722 ft | 272 kts | 106° |
| 2026-04-24 15:04 | 41.07481 | 29.28678 | 6384 ft | 272 kts | 106° |
| 2026-04-24 15:04 | 41.06933 | 29.31079 | 5962 ft | 272 kts | 106° |
| 2026-04-24 15:04 | 41.06387 | 29.33462 | 5625 ft | 269 kts | 106° |
| 2026-04-24 15:05 | 41.05842 | 29.35829 | 5222 ft | 269 kts | 106° |
| 2026-04-24 15:05 | 41.05302 | 29.38177 | 4864 ft | 260 kts | 106° |
| 2026-04-24 15:05 | 41.04789 | 29.40396 | 4717 ft | 244 kts | 106° |
| 2026-04-24 15:05 | 41.04313 | 29.42467 | 4561 ft | 227 kts | 106° |
| 2026-04-24 15:06 | 41.03869 | 29.44398 | 4425 ft | 211 kts | 106° |
| 2026-04-24 15:06 | 41.03457 | 29.46189 | 4143 ft | 200 kts | 107° |
| 2026-04-24 15:06 | 41.03051 | 29.47963 | 3675 ft | 199 kts | 107° |
| 2026-04-24 15:06 | 41.02643 | 29.49744 | 3535 ft | 207 kts | 107° |
| 2026-04-24 15:07 | 41.02228 | 29.51549 | 3489 ft | 200 kts | 107° |
| 2026-04-24 15:07 | 41.01842 | 29.53218 | 3488 ft | 180 kts | 107° |
| 2026-04-24 15:07 | 41.01478 | 29.54733 | 3490 ft | 166 kts | 112° |
| 2026-04-24 15:07 | 41.00802 | 29.55847 | 3487 ft | 149 kts | 156° |
| 2026-04-24 15:08 | 40.99790 | 29.55909 | 3532 ft | 155 kts | 201° |
| 2026-04-24 15:08 | 40.98944 | 29.55111 | 3506 ft | 147 kts | 231° |
| 2026-04-24 15:08 | 40.98366 | 29.53989 | 3499 ft | 148 kts | 242° |
| 2026-04-24 15:08 | 40.97893 | 29.52788 | 3500 ft | 148 kts | 245° |
| 2026-04-24 15:09 | 40.97442 | 29.51578 | 3498 ft | 147 kts | 245° |
| 2026-04-24 15:09 | 40.96997 | 29.50371 | 3523 ft | 146 kts | 245° |
| 2026-04-24 15:09 | 40.96576 | 29.49227 | 3489 ft | 132 kts | 245° |
| 2026-04-24 15:09 | 40.96167 | 29.48112 | 3347 ft | 136 kts | 245° |
| 2026-04-24 15:10 | 40.95757 | 29.46996 | 3148 ft | 134 kts | 245° |
| 2026-04-24 15:10 | 40.95351 | 29.45887 | 2940 ft | 135 kts | 245° |
| 2026-04-24 15:10 | 40.94948 | 29.44789 | 2731 ft | 130 kts | 245° |
| 2026-04-24 15:10 | 40.94546 | 29.43695 | 2522 ft | 133 kts | 245° |
| 2026-04-24 15:11 | 40.94144 | 29.42601 | 2315 ft | 131 kts | 245° |
| 2026-04-24 15:11 | 40.93746 | 29.41516 | 2110 ft | 131 kts | 245° |
| 2026-04-24 15:11 | 40.93347 | 29.40431 | 1903 ft | 130 kts | 245° |
| 2026-04-24 15:11 | 40.92956 | 29.39366 | 1703 ft | 129 kts | 245° |
| 2026-04-24 15:12 | 40.92561 | 29.38291 | 1489 ft | 130 kts | 245° |
| 2026-04-24 15:12 | 40.91780 | 29.36168 | 1077 ft | 125 kts | 244° |
| 2026-04-24 15:12 | 40.91403 | 29.35134 | 879 ft | 128 kts | 243° |
| 2026-04-24 15:13 | 40.91017 | 29.34086 | 674 ft | 124 kts | 242° |
| 2026-04-24 15:13 | 40.90649 | 29.33073 | 462 ft | 125 kts | 243° |
| 2026-04-24 15:13 | 40.90275 | 29.32041 | 312 ft | 118 kts | 243° |
| 2026-04-24 15:13 | 40.90020 | 29.31371 | 307 ft | 38 kts | 246° |
| 2026-04-24 15:14 | 40.89997 | 29.31300 | 307 ft | 0 kts | 246° |
| 2026-04-24 15:14 | 40.89921 | 29.31092 | 306 ft | 45 kts | 239° |
| 2026-04-24 15:14 | 40.89815 | 29.30672 | 308 ft | 50 kts | 270° |
| 2026-04-24 15:14 | 40.89816 | 29.30482 | 307 ft | 0 kts | 282° |
| 2026-04-24 15:16 | 40.89824 | 29.30464 | 307 ft | 6 kts | 302° |
| 2026-04-24 15:16 | 40.89875 | 29.30445 | 306 ft | 6 kts | 32° |
| 2026-04-24 15:16 | 40.89925 | 29.30541 | 308 ft | 18 kts | 62° |
| 2026-04-24 15:16 | 40.89991 | 29.30713 | 307 ft | 23 kts | 63° |
| 2026-04-24 15:17 | 40.90074 | 29.30907 | 308 ft | 25 kts | 37° |
| 2026-04-24 15:17 | 40.90224 | 29.30888 | 309 ft | 17 kts | 15° |
| 2026-04-24 15:17 | 40.90298 | 29.30993 | 308 ft | 11 kts | 29° |
| 2026-04-24 15:17 | 40.90347 | 29.30979 | 308 ft | 8 kts | 348° |
| 2026-04-24 15:18 | 40.90358 | 29.30974 | 310 ft | 0 kts | 335° |